sensor_id;sensor_type;location;lat;lon;timestamp;pressure;altitude;pressure_sealevel;temperature;humidity
25722;BME280;13578;53.450;15.496;2023-05-29T00:00:53;100232.09;;;10.57;100.00
25722;BME280;13578;53.450;15.496;2023-05-29T00:03:53;100225.97;;;10.53;100.00
25722;BME280;13578;53.450;15.496;2023-05-29T00:06:54;100229.72;;;10.52;100.00
25722;BME280;13578;53.450;15.496;2023-05-29T00:09:56;100226.84;;;10.54;100.00
25722;BME280;13578;53.450;15.496;2023-05-29T00:12:57;100220.25;;;10.56;100.00
25722;BME280;13578;53.450;15.496;2023-05-29T00:15:58;100219.59;;;10.64;100.00
25722;BME280;13578;53.450;15.496;2023-05-29T00:19:00;100224.47;;;10.60;100.00
25722;BME280;13578;53.450;15.496;2023-05-29T00:22:01;100232.94;;;10.69;100.00
25722;BME280;13578;53.450;15.496;2023-05-29T00:25:02;100237.94;;;10.63;100.00
25722;BME280;13578;53.450;15.496;2023-05-29T00:28:03;100238.06;;;10.62;100.00
25722;BME280;13578;53.450;15.496;2023-05-29T00:31:04;100240.06;;;10.60;100.00
25722;BME280;13578;53.450;15.496;2023-05-29T00:34:04;100229.47;;;10.55;100.00
25722;BME280;13578;53.450;15.496;2023-05-29T00:37:05;100236.72;;;10.56;100.00
25722;BME280;13578;53.450;15.496;2023-05-29T00:40:07;100239.56;;;10.55;100.00
25722;BME280;13578;53.450;15.496;2023-05-29T00:43:08;100244.72;;;10.48;100.00
25722;BME280;13578;53.450;15.496;2023-05-29T00:46:09;100247.97;;;10.42;100.00
25722;BME280;13578;53.450;15.496;2023-05-29T00:49:10;100250.81;;;10.40;100.00
25722;BME280;13578;53.450;15.496;2023-05-29T00:52:12;100258.53;;;10.35;100.00
25722;BME280;13578;53.450;15.496;2023-05-29T00:55:13;100257.53;;;10.36;100.00
25722;BME280;13578;53.450;15.496;2023-05-29T00:58:15;100258.19;;;10.40;100.00
25722;BME280;13578;53.450;15.496;2023-05-29T01:01:17;100256.81;;;10.45;100.00
25722;BME280;13578;53.450;15.496;2023-05-29T01:04:19;100256.19;;;10.42;100.00
25722;BME280;13578;53.450;15.496;2023-05-29T01:07:21;100257.44;;;10.49;100.00
25722;BME280;13578;53.450;15.496;2023-05-29T01:10:22;100254.41;;;10.52;100.00
25722;BME280;13578;53.450;15.496;2023-05-29T01:13:27;100264.16;;;10.56;100.00
25722;BME280;13578;53.450;15.496;2023-05-29T01:16:55;100274.13;;;10.57;100.00
25722;BME280;13578;53.450;15.496;2023-05-29T01:26:52;100251.53;;;10.65;100.00
25722;BME280;13578;53.450;15.496;2023-05-29T01:29:57;100255.38;;;10.74;100.00
25722;BME280;13578;53.450;15.496;2023-05-29T01:32:59;100254.00;;;10.79;100.00
25722;BME280;13578;53.450;15.496;2023-05-29T01:36:00;100260.97;;;10.84;100.00
25722;BME280;13578;53.450;15.496;2023-05-29T01:39:01;100252.84;;;10.82;100.00
25722;BME280;13578;53.450;15.496;2023-05-29T01:42:02;100249.34;;;10.80;100.00
25722;BME280;13578;53.450;15.496;2023-05-29T01:45:04;100258.34;;;10.82;100.00
25722;BME280;13578;53.450;15.496;2023-05-29T01:48:07;100260.63;;;10.77;100.00
25722;BME280;13578;53.450;15.496;2023-05-29T01:51:08;100257.72;;;10.78;100.00
25722;BME280;13578;53.450;15.496;2023-05-29T01:54:09;100257.88;;;10.77;100.00
25722;BME280;13578;53.450;15.496;2023-05-29T01:57:10;100255.13;;;10.77;100.00
25722;BME280;13578;53.450;15.496;2023-05-29T02:00:12;100258.63;;;10.79;100.00
25722;BME280;13578;53.450;15.496;2023-05-29T02:03:13;100245.00;;;10.77;100.00
25722;BME280;13578;53.450;15.496;2023-05-29T02:06:14;100252.38;;;10.77;100.00
25722;BME280;13578;53.450;15.496;2023-05-29T02:09:16;100264.59;;;10.84;100.00
25722;BME280;13578;53.450;15.496;2023-05-29T02:12:18;100264.84;;;10.81;100.00
25722;BME280;13578;53.450;15.496;2023-05-29T02:15:18;100256.13;;;10.76;100.00
25722;BME280;13578;53.450;15.496;2023-05-29T02:18:19;100256.66;;;10.70;100.00
25722;BME280;13578;53.450;15.496;2023-05-29T02:21:20;100247.94;;;10.64;100.00
25722;BME280;13578;53.450;15.496;2023-05-29T02:24:21;100256.66;;;10.70;100.00
25722;BME280;13578;53.450;15.496;2023-05-29T02:27:21;100250.41;;;10.68;100.00
25722;BME280;13578;53.450;15.496;2023-05-29T02:30:22;100259.63;;;10.67;100.00
25722;BME280;13578;53.450;15.496;2023-05-29T02:33:22;100255.88;;;10.68;100.00
25722;BME280;13578;53.450;15.496;2023-05-29T02:36:23;100257.88;;;10.65;100.00
25722;BME280;13578;53.450;15.496;2023-05-29T02:39:24;100247.03;;;10.75;100.00
25722;BME280;13578;53.450;15.496;2023-05-29T02:42:24;100246.41;;;10.72;100.00
25722;BME280;13578;53.450;15.496;2023-05-29T02:45:25;100248.13;;;10.73;100.00
25722;BME280;13578;53.450;15.496;2023-05-29T02:48:26;100244.28;;;10.64;100.00
25722;BME280;13578;53.450;15.496;2023-05-29T02:51:26;100247.78;;;10.55;100.00
25722;BME280;13578;53.450;15.496;2023-05-29T02:54:27;100244.44;;;10.51;100.00
25722;BME280;13578;53.450;15.496;2023-05-29T02:57:28;100234.44;;;10.50;100.00
25722;BME280;13578;53.450;15.496;2023-05-29T03:00:29;100236.94;;;10.53;100.00
25722;BME280;13578;53.450;15.496;2023-05-29T03:03:30;100235.34;;;10.51;100.00
25722;BME280;13578;53.450;15.496;2023-05-29T03:06:31;100240.97;;;10.49;100.00
25722;BME280;13578;53.450;15.496;2023-05-29T03:09:32;100241.97;;;10.48;100.00
25722;BME280;13578;53.450;15.496;2023-05-29T03:12:33;100236.22;;;10.40;100.00
25722;BME280;13578;53.450;15.496;2023-05-29T03:15:33;100239.47;;;10.45;100.00
25722;BME280;13578;53.450;15.496;2023-05-29T03:18:34;100243.81;;;10.47;100.00
25722;BME280;13578;53.450;15.496;2023-05-29T03:21:35;100236.56;;;10.46;100.00
25722;BME280;13578;53.450;15.496;2023-05-29T03:24:36;100235.19;;;10.52;100.00
25722;BME280;13578;53.450;15.496;2023-05-29T03:27:37;100238.94;;;10.51;100.00
25722;BME280;13578;53.450;15.496;2023-05-29T03:30:37;100248.69;;;10.44;100.00
25722;BME280;13578;53.450;15.496;2023-05-29T03:33:38;100248.97;;;10.41;100.00
25722;BME280;13578;53.450;15.496;2023-05-29T03:36:39;100255.78;;;10.46;100.00
25722;BME280;13578;53.450;15.496;2023-05-29T03:39:39;100256.91;;;10.55;100.00
25722;BME280;13578;53.450;15.496;2023-05-29T03:42:40;100255.03;;;10.56;100.00
25722;BME280;13578;53.450;15.496;2023-05-29T03:45:41;100266.00;;;10.67;100.00
25722;BME280;13578;53.450;15.496;2023-05-29T03:48:41;100261.75;;;10.74;100.00
25722;BME280;13578;53.450;15.496;2023-05-29T03:51:42;100258.72;;;10.77;100.00
25722;BME280;13578;53.450;15.496;2023-05-29T03:54:42;100257.31;;;10.94;100.00
25722;BME280;13578;53.450;15.496;2023-05-29T03:57:45;100262.50;;;11.09;100.00
25722;BME280;13578;53.450;15.496;2023-05-29T04:00:46;100273.41;;;11.32;100.00
25722;BME280;13578;53.450;15.496;2023-05-29T04:03:46;100273.28;;;11.54;100.00
25722;BME280;13578;53.450;15.496;2023-05-29T04:06:47;100274.22;;;11.86;100.00
25722;BME280;13578;53.450;15.496;2023-05-29T04:09:47;100267.47;;;12.11;100.00
25722;BME280;13578;53.450;15.496;2023-05-29T04:12:48;100267.00;;;12.37;100.00
25722;BME280;13578;53.450;15.496;2023-05-29T04:15:49;100271.78;;;12.45;100.00
25722;BME280;13578;53.450;15.496;2023-05-29T04:18:52;100273.53;;;12.46;100.00
25722;BME280;13578;53.450;15.496;2023-05-29T04:21:53;100289.34;;;12.44;100.00
25722;BME280;13578;53.450;15.496;2023-05-29T04:24:54;100287.97;;;12.59;100.00
25722;BME280;13578;53.450;15.496;2023-05-29T04:27:55;100285.09;;;12.80;100.00
25722;BME280;13578;53.450;15.496;2023-05-29T04:30:56;100284.53;;;12.86;100.00
25722;BME280;13578;53.450;15.496;2023-05-29T04:33:57;100291.44;;;12.71;100.00
25722;BME280;13578;53.450;15.496;2023-05-29T04:36:57;100286.84;;;12.71;100.00
25722;BME280;13578;53.450;15.496;2023-05-29T04:39:58;100279.34;;;13.03;100.00
25722;BME280;13578;53.450;15.496;2023-05-29T04:42:59;100290.84;;;13.28;100.00
25722;BME280;13578;53.450;15.496;2023-05-29T04:46:03;100279.09;;;13.75;100.00
25722;BME280;13578;53.450;15.496;2023-05-29T04:49:03;100281.09;;;14.02;100.00
25722;BME280;13578;53.450;15.496;2023-05-29T04:52:04;100286.72;;;14.10;100.00
25722;BME280;13578;53.450;15.496;2023-05-29T04:55:06;100293.28;;;14.00;100.00
25722;BME280;13578;53.450;15.496;2023-05-29T04:58:06;100290.16;;;13.65;100.00
25722;BME280;13578;53.450;15.496;2023-05-29T05:01:08;100290.97;;;13.85;100.00
25722;BME280;13578;53.450;15.496;2023-05-29T05:04:09;100286.31;;;14.05;100.00
25722;BME280;13578;53.450;15.496;2023-05-29T05:07:10;100287.66;;;14.39;100.00
25722;BME280;13578;53.450;15.496;2023-05-29T05:10:11;100287.31;;;14.52;100.00
25722;BME280;13578;53.450;15.496;2023-05-29T05:13:12;100274.69;;;14.39;100.00
25722;BME280;13578;53.450;15.496;2023-05-29T05:16:13;100284.50;;;14.61;100.00
25722;BME280;13578;53.450;15.496;2023-05-29T05:19:13;100281.84;;;14.32;100.00
25722;BME280;13578;53.450;15.496;2023-05-29T05:22:14;100286.44;;;14.13;100.00
25722;BME280;13578;53.450;15.496;2023-05-29T05:25:14;100293.41;;;14.08;100.00
25722;BME280;13578;53.450;15.496;2023-05-29T05:28:15;100289.94;;;14.06;100.00
25722;BME280;13578;53.450;15.496;2023-05-29T05:31:16;100291.75;;;14.25;100.00
25722;BME280;13578;53.450;15.496;2023-05-29T05:34:16;100290.97;;;14.42;100.00
25722;BME280;13578;53.450;15.496;2023-05-29T05:37:17;100285.94;;;14.75;100.00
25722;BME280;13578;53.450;15.496;2023-05-29T05:40:18;100298.41;;;14.80;100.00
25722;BME280;13578;53.450;15.496;2023-05-29T05:43:19;100297.16;;;14.92;100.00
25722;BME280;13578;53.450;15.496;2023-05-29T05:46:19;100296.56;;;15.16;100.00
25722;BME280;13578;53.450;15.496;2023-05-29T05:49:20;100288.75;;;15.12;100.00
25722;BME280;13578;53.450;15.496;2023-05-29T05:52:20;100280.19;;;15.05;100.00
25722;BME280;13578;53.450;15.496;2023-05-29T05:55:21;100297.81;;;15.04;100.00
25722;BME280;13578;53.450;15.496;2023-05-29T05:58:22;100303.25;;;15.14;100.00
25722;BME280;13578;53.450;15.496;2023-05-29T06:01:22;100299.91;;;15.38;100.00
25722;BME280;13578;53.450;15.496;2023-05-29T06:04:23;100305.50;;;15.64;100.00
25722;BME280;13578;53.450;15.496;2023-05-29T06:07:24;100297.44;;;15.89;100.00
25722;BME280;13578;53.450;15.496;2023-05-29T06:10:24;100295.13;;;16.02;100.00
25722;BME280;13578;53.450;15.496;2023-05-29T06:13:25;100282.75;;;15.70;100.00
25722;BME280;13578;53.450;15.496;2023-05-29T06:16:26;100282.69;;;15.44;100.00
25722;BME280;13578;53.450;15.496;2023-05-29T06:19:27;100280.34;;;15.76;100.00
25722;BME280;13578;53.450;15.496;2023-05-29T06:22:27;100268.22;;;15.32;100.00
25722;BME280;13578;53.450;15.496;2023-05-29T06:25:28;100285.13;;;15.29;100.00
25722;BME280;13578;53.450;15.496;2023-05-29T06:28:33;100280.22;;;15.23;100.00
25722;BME280;13578;53.450;15.496;2023-05-29T06:31:34;100278.56;;;15.30;100.00
25722;BME280;13578;53.450;15.496;2023-05-29T06:34:34;100303.84;;;15.53;100.00
25722;BME280;13578;53.450;15.496;2023-05-29T06:37:35;100280.94;;;15.43;100.00
25722;BME280;13578;53.450;15.496;2023-05-29T06:40:36;100291.44;;;15.57;100.00
25722;BME280;13578;53.450;15.496;2023-05-29T06:43:37;100305.91;;;15.87;100.00
25722;BME280;13578;53.450;15.496;2023-05-29T06:46:37;100306.34;;;16.01;100.00
25722;BME280;13578;53.450;15.496;2023-05-29T06:49:38;100302.50;;;15.94;100.00
25722;BME280;13578;53.450;15.496;2023-05-29T06:52:39;100298.28;;;16.08;100.00
25722;BME280;13578;53.450;15.496;2023-05-29T06:55:40;100305.41;;;16.37;100.00
25722;BME280;13578;53.450;15.496;2023-05-29T06:58:41;100287.41;;;16.41;100.00
25722;BME280;13578;53.450;15.496;2023-05-29T07:01:42;100278.81;;;16.52;100.00
25722;BME280;13578;53.450;15.496;2023-05-29T07:04:42;100287.75;;;16.46;100.00
25722;BME280;13578;53.450;15.496;2023-05-29T07:07:43;100295.50;;;16.68;100.00
25722;BME280;13578;53.450;15.496;2023-05-29T07:10:44;100299.59;;;16.91;100.00
25722;BME280;13578;53.450;15.496;2023-05-29T07:13:44;100304.09;;;16.92;100.00
25722;BME280;13578;53.450;15.496;2023-05-29T07:16:45;100287.78;;;16.89;100.00
25722;BME280;13578;53.450;15.496;2023-05-29T07:19:46;100303.47;;;16.98;100.00
25722;BME280;13578;53.450;15.496;2023-05-29T07:22:47;100299.69;;;17.15;100.00
25722;BME280;13578;53.450;15.496;2023-05-29T07:25:47;100290.16;;;17.26;100.00
25722;BME280;13578;53.450;15.496;2023-05-29T07:28:49;100295.38;;;17.21;100.00
25722;BME280;13578;53.450;15.496;2023-05-29T07:31:50;100295.41;;;17.38;100.00
25722;BME280;13578;53.450;15.496;2023-05-29T07:34:51;100299.06;;;17.63;100.00
25722;BME280;13578;53.450;15.496;2023-05-29T07:37:51;100289.53;;;17.66;99.88
25722;BME280;13578;53.450;15.496;2023-05-29T07:40:54;100294.22;;;17.90;100.00
25722;BME280;13578;53.450;15.496;2023-05-29T07:43:54;100279.13;;;17.76;95.09
25722;BME280;13578;53.450;15.496;2023-05-29T07:46:56;100293.72;;;17.61;97.13
25722;BME280;13578;53.450;15.496;2023-05-29T07:49:57;100294.41;;;17.80;98.41
25722;BME280;13578;53.450;15.496;2023-05-29T07:52:58;100297.50;;;17.52;97.48
25722;BME280;13578;53.450;15.496;2023-05-29T07:55:59;100291.97;;;17.60;97.73
25722;BME280;13578;53.450;15.496;2023-05-29T07:59:00;100291.28;;;17.91;98.36
25722;BME280;13578;53.450;15.496;2023-05-29T08:02:01;100301.03;;;17.96;97.79
25722;BME280;13578;53.450;15.496;2023-05-29T08:05:03;100290.41;;;18.16;94.40
25722;BME280;13578;53.450;15.496;2023-05-29T08:08:04;100295.78;;;18.01;95.40
25722;BME280;13578;53.450;15.496;2023-05-29T08:11:06;100301.50;;;17.83;97.23
25722;BME280;13578;53.450;15.496;2023-05-29T08:14:07;100292.31;;;18.15;94.49
25722;BME280;13578;53.450;15.496;2023-05-29T08:17:07;100292.06;;;18.41;92.66
25722;BME280;13578;53.450;15.496;2023-05-29T08:20:08;100307.72;;;18.34;93.37
25722;BME280;13578;53.450;15.496;2023-05-29T08:23:10;100308.97;;;17.74;93.29
25722;BME280;13578;53.450;15.496;2023-05-29T08:26:11;100314.63;;;17.31;96.68
25722;BME280;13578;53.450;15.496;2023-05-29T08:29:12;100318.44;;;17.38;99.05
25722;BME280;13578;53.450;15.496;2023-05-29T08:32:13;100332.13;;;16.89;99.32
25722;BME280;13578;53.450;15.496;2023-05-29T08:35:14;100338.34;;;16.82;100.00
25722;BME280;13578;53.450;15.496;2023-05-29T08:38:14;100327.81;;;17.29;100.00
25722;BME280;13578;53.450;15.496;2023-05-29T08:44:31;100322.09;;;17.30;99.04
25722;BME280;13578;53.450;15.496;2023-05-29T08:47:33;100318.34;;;17.73;99.73
25722;BME280;13578;53.450;15.496;2023-05-29T08:50:34;100324.59;;;18.00;98.03
25722;BME280;13578;53.450;15.496;2023-05-29T08:53:35;100293.00;;;18.25;92.47
25722;BME280;13578;53.450;15.496;2023-05-29T08:56:36;100294.38;;;18.21;92.44
25722;BME280;13578;53.450;15.496;2023-05-29T08:59:37;100293.31;;;17.48;90.00
25722;BME280;13578;53.450;15.496;2023-05-29T09:02:40;100303.03;;;17.36;91.79
25722;BME280;13578;53.450;15.496;2023-05-29T09:05:41;100313.09;;;17.37;93.38
25722;BME280;13578;53.450;15.496;2023-05-29T09:08:43;100319.19;;;17.82;94.86
25722;BME280;13578;53.450;15.496;2023-05-29T09:11:44;100309.50;;;18.19;91.73
25722;BME280;13578;53.450;15.496;2023-05-29T09:14:45;100299.75;;;17.90;87.88
25722;BME280;13578;53.450;15.496;2023-05-29T09:17:54;100317.94;;;17.43;92.25
25722;BME280;13578;53.450;15.496;2023-05-29T09:20:55;100298.03;;;17.64;86.98
25722;BME280;13578;53.450;15.496;2023-05-29T09:24:03;100321.63;;;18.18;91.35
25722;BME280;13578;53.450;15.496;2023-05-29T09:27:04;100299.41;;;17.60;87.13
25722;BME280;13578;53.450;15.496;2023-05-29T09:30:05;100312.22;;;17.44;89.08
25722;BME280;13578;53.450;15.496;2023-05-29T09:33:09;100322.78;;;17.24;90.60
25722;BME280;13578;53.450;15.496;2023-05-29T09:36:19;100336.50;;;17.34;92.34
25722;BME280;13578;53.450;15.496;2023-05-29T09:39:21;100335.59;;;17.34;93.17
25722;BME280;13578;53.450;15.496;2023-05-29T09:42:21;100336.00;;;17.39;92.57
25722;BME280;13578;53.450;15.496;2023-05-29T09:45:22;100329.09;;;17.59;91.00
25722;BME280;13578;53.450;15.496;2023-05-29T09:48:23;100313.81;;;17.80;87.24
25722;BME280;13578;53.450;15.496;2023-05-29T09:51:24;100304.97;;;17.93;85.75
25722;BME280;13578;53.450;15.496;2023-05-29T09:54:28;100304.28;;;18.24;85.94
25722;BME280;13578;53.450;15.496;2023-05-29T09:57:30;100300.63;;;18.23;84.86
25722;BME280;13578;53.450;15.496;2023-05-29T10:00:31;100306.56;;;18.77;86.71
25722;BME280;13578;53.450;15.496;2023-05-29T10:03:32;100296.28;;;18.29;83.52
25722;BME280;13578;53.450;15.496;2023-05-29T10:06:36;100298.72;;;17.91;83.22
25722;BME280;13578;53.450;15.496;2023-05-29T10:09:42;100303.78;;;18.04;84.39
25722;BME280;13578;53.450;15.496;2023-05-29T10:12:47;100303.56;;;17.89;83.00
25722;BME280;13578;53.450;15.496;2023-05-29T10:15:49;100302.75;;;18.13;82.96
25722;BME280;13578;53.450;15.496;2023-05-29T10:18:55;100312.78;;;18.14;83.36
25722;BME280;13578;53.450;15.496;2023-05-29T10:21:57;100298.91;;;17.65;80.60
25722;BME280;13578;53.450;15.496;2023-05-29T10:24:58;100295.16;;;17.14;78.00
25722;BME280;13578;53.450;15.496;2023-05-29T10:27:59;100310.88;;;16.97;81.25
25722;BME280;13578;53.450;15.496;2023-05-29T10:31:06;100311.66;;;17.16;82.47
25722;BME280;13578;53.450;15.496;2023-05-29T10:38:08;100319.03;;;18.16;86.18
25722;BME280;13578;53.450;15.496;2023-05-29T10:47:33;100296.84;;;17.91;80.13
25722;BME280;13578;53.450;15.496;2023-05-29T10:50:43;100310.53;;;17.85;82.26
25722;BME280;13578;53.450;15.496;2023-05-29T10:53:45;100306.91;;;18.09;81.50
25722;BME280;13578;53.450;15.496;2023-05-29T10:57:13;100291.28;;;18.08;77.84
25722;BME280;13578;53.450;15.496;2023-05-29T11:00:15;100285.38;;;18.19;76.28
25722;BME280;13578;53.450;15.496;2023-05-29T11:03:41;100269.41;;;18.13;74.96
25722;BME280;13578;53.450;15.496;2023-05-29T11:06:41;100288.44;;;18.41;77.59
25722;BME280;13578;53.450;15.496;2023-05-29T11:09:42;100271.31;;;18.69;74.65
25722;BME280;13578;53.450;15.496;2023-05-29T11:12:57;100255.56;;;19.01;71.29
25722;BME280;13578;53.450;15.496;2023-05-29T11:19:19;100257.13;;;19.03;72.75
25722;BME280;13578;53.450;15.496;2023-05-29T11:22:25;100276.69;;;19.10;75.18
25722;BME280;13578;53.450;15.496;2023-05-29T11:25:28;100280.63;;;19.47;76.85
25722;BME280;13578;53.450;15.496;2023-05-29T11:28:29;100268.94;;;19.52;73.03
25722;BME280;13578;53.450;15.496;2023-05-29T11:31:32;100255.78;;;19.23;70.92
25722;BME280;13578;53.450;15.496;2023-05-29T11:34:40;100229.91;;;19.14;66.40
25722;BME280;13578;53.450;15.496;2023-05-29T11:37:42;100235.06;;;19.25;68.06
25722;BME280;13578;53.450;15.496;2023-05-29T11:40:46;100252.50;;;19.65;70.44
25722;BME280;13578;53.450;15.496;2023-05-29T11:44:05;100240.53;;;19.80;67.46
25722;BME280;13578;53.450;15.496;2023-05-29T11:47:09;100232.19;;;19.10;67.47
25722;BME280;13578;53.450;15.496;2023-05-29T11:50:23;100273.75;;;18.72;73.90
25722;BME280;13578;53.450;15.496;2023-05-29T11:53:25;100277.03;;;18.76;76.51
25722;BME280;13578;53.450;15.496;2023-05-29T11:56:27;100277.66;;;19.26;74.94
25722;BME280;13578;53.450;15.496;2023-05-29T11:59:29;100260.22;;;19.09;71.61
25722;BME280;13578;53.450;15.496;2023-05-29T12:02:30;100241.50;;;18.54;69.09
25722;BME280;13578;53.450;15.496;2023-05-29T12:05:43;100266.34;;;18.48;73.74
25722;BME280;13578;53.450;15.496;2023-05-29T12:08:51;100245.19;;;18.86;71.08
25722;BME280;13578;53.450;15.496;2023-05-29T12:11:51;100237.59;;;19.35;68.40
25722;BME280;13578;53.450;15.496;2023-05-29T12:14:52;100224.34;;;19.60;66.67
25722;BME280;13578;53.450;15.496;2023-05-29T12:17:54;100237.03;;;19.63;67.41
25722;BME280;13578;53.450;15.496;2023-05-29T12:21:00;100251.91;;;19.55;69.67
25722;BME280;13578;53.450;15.496;2023-05-29T12:24:01;100237.28;;;19.53;68.31
25722;BME280;13578;53.450;15.496;2023-05-29T12:27:05;100205.31;;;19.26;64.47
25722;BME280;13578;53.450;15.496;2023-05-29T12:30:09;100231.13;;;18.80;66.99
25722;BME280;13578;53.450;15.496;2023-05-29T12:33:30;100232.91;;;18.33;66.88
25722;BME280;13578;53.450;15.496;2023-05-29T12:36:31;100237.63;;;18.72;67.55
25722;BME280;13578;53.450;15.496;2023-05-29T12:39:33;100206.47;;;18.77;64.92
25722;BME280;13578;53.450;15.496;2023-05-29T12:42:33;100225.44;;;18.73;66.72
25722;BME280;13578;53.450;15.496;2023-05-29T12:45:34;100245.22;;;18.78;69.49
25722;BME280;13578;53.450;15.496;2023-05-29T12:48:38;100260.38;;;18.76;71.51
25722;BME280;13578;53.450;15.496;2023-05-29T12:51:43;100236.16;;;18.84;67.21
25722;BME280;13578;53.450;15.496;2023-05-29T12:54:44;100234.97;;;18.39;67.26
25722;BME280;13578;53.450;15.496;2023-05-29T12:57:45;100224.13;;;18.52;65.95
25722;BME280;13578;53.450;15.496;2023-05-29T13:00:46;100238.44;;;18.41;69.12
25722;BME280;13578;53.450;15.496;2023-05-29T13:03:47;100237.63;;;18.72;69.08
25722;BME280;13578;53.450;15.496;2023-05-29T13:06:48;100224.34;;;18.82;66.52
25722;BME280;13578;53.450;15.496;2023-05-29T13:09:49;100202.09;;;18.82;64.22
25722;BME280;13578;53.450;15.496;2023-05-29T13:12:50;100210.28;;;18.36;66.22
25722;BME280;13578;53.450;15.496;2023-05-29T13:15:54;100244.13;;;18.48;71.30
25722;BME280;13578;53.450;15.496;2023-05-29T13:18:54;100213.19;;;18.91;67.09
25722;BME280;13578;53.450;15.496;2023-05-29T13:21:55;100213.91;;;18.93;65.58
25722;BME280;13578;53.450;15.496;2023-05-29T13:24:57;100218.78;;;19.14;67.40
25722;BME280;13578;53.450;15.496;2023-05-29T13:27:59;100184.91;;;19.10;60.65
25722;BME280;13578;53.450;15.496;2023-05-29T13:31:00;100162.06;;;19.00;57.73
25722;BME280;13578;53.450;15.496;2023-05-29T13:34:00;100197.22;;;18.93;61.74
25722;BME280;13578;53.450;15.496;2023-05-29T13:37:01;100194.63;;;19.14;61.84
25722;BME280;13578;53.450;15.496;2023-05-29T13:40:02;100192.66;;;19.23;61.90
25722;BME280;13578;53.450;15.496;2023-05-29T13:43:04;100193.53;;;19.24;61.96
25722;BME280;13578;53.450;15.496;2023-05-29T13:46:04;100165.03;;;19.22;57.65
25722;BME280;13578;53.450;15.496;2023-05-29T13:49:05;100170.41;;;19.00;57.88
25722;BME280;13578;53.450;15.496;2023-05-29T13:52:08;100166.31;;;19.11;59.13
25722;BME280;13578;53.450;15.496;2023-05-29T13:55:08;100140.59;;;19.09;57.21
25722;BME280;13578;53.450;15.496;2023-05-29T13:58:10;100144.97;;;19.03;57.22
25722;BME280;13578;53.450;15.496;2023-05-29T14:01:10;100151.25;;;19.05;57.48
25722;BME280;13578;53.450;15.496;2023-05-29T14:04:11;100155.13;;;18.87;57.80
25722;BME280;13578;53.450;15.496;2023-05-29T14:07:11;100130.09;;;18.96;55.96
25722;BME280;13578;53.450;15.496;2023-05-29T14:10:12;100171.66;;;18.97;59.47
25722;BME280;13578;53.450;15.496;2023-05-29T14:13:13;100138.03;;;19.07;56.23
25722;BME280;13578;53.450;15.496;2023-05-29T14:16:13;100138.50;;;19.11;56.17
25722;BME280;13578;53.450;15.496;2023-05-29T14:19:16;100158.72;;;18.73;57.50
25722;BME280;13578;53.450;15.496;2023-05-29T14:22:16;100150.59;;;18.95;56.89
25722;BME280;13578;53.450;15.496;2023-05-29T14:25:17;100152.34;;;18.87;56.88
25722;BME280;13578;53.450;15.496;2023-05-29T14:28:17;100160.91;;;18.86;58.66
25722;BME280;13578;53.450;15.496;2023-05-29T14:31:18;100157.63;;;18.82;57.95
25722;BME280;13578;53.450;15.496;2023-05-29T14:34:19;100156.44;;;18.77;58.23
25722;BME280;13578;53.450;15.496;2023-05-29T14:37:19;100172.69;;;18.96;59.57
25722;BME280;13578;53.450;15.496;2023-05-29T14:40:20;100154.34;;;18.79;57.64
25722;BME280;13578;53.450;15.496;2023-05-29T14:43:21;100139.41;;;18.80;56.37
25722;BME280;13578;53.450;15.496;2023-05-29T14:46:22;100159.81;;;18.95;58.40
25722;BME280;13578;53.450;15.496;2023-05-29T14:49:22;100157.41;;;18.84;57.87
25722;BME280;13578;53.450;15.496;2023-05-29T14:52:23;100167.47;;;18.93;59.51
25722;BME280;13578;53.450;15.496;2023-05-29T14:55:24;100169.53;;;18.99;59.52
25722;BME280;13578;53.450;15.496;2023-05-29T14:58:25;100164.66;;;18.70;59.32
25722;BME280;13578;53.450;15.496;2023-05-29T15:01:25;100167.28;;;18.63;60.20
25722;BME280;13578;53.450;15.496;2023-05-29T15:04:26;100158.94;;;18.63;58.88
25722;BME280;13578;53.450;15.496;2023-05-29T15:07:26;100149.44;;;18.57;57.98
25722;BME280;13578;53.450;15.496;2023-05-29T15:10:27;100158.81;;;18.56;59.24
25722;BME280;13578;53.450;15.496;2023-05-29T15:13:28;100146.81;;;18.56;58.10
25722;BME280;13578;53.450;15.496;2023-05-29T15:16:29;100153.38;;;18.63;59.05
25722;BME280;13578;53.450;15.496;2023-05-29T15:19:30;100154.22;;;18.72;58.41
25722;BME280;13578;53.450;15.496;2023-05-29T15:22:31;100158.81;;;18.56;59.19
25722;BME280;13578;53.450;15.496;2023-05-29T15:25:32;100160.22;;;18.52;60.14
25722;BME280;13578;53.450;15.496;2023-05-29T15:28:33;100152.78;;;18.53;59.52
25722;BME280;13578;53.450;15.496;2023-05-29T15:31:33;100174.88;;;18.38;61.89
25722;BME280;13578;53.450;15.496;2023-05-29T15:34:34;100167.28;;;18.23;62.20
25722;BME280;13578;53.450;15.496;2023-05-29T15:37:35;100163.38;;;17.93;61.38
25722;BME280;13578;53.450;15.496;2023-05-29T15:40:35;100181.94;;;18.09;64.37
25722;BME280;13578;53.450;15.496;2023-05-29T15:43:36;100187.88;;;17.98;65.39
25722;BME280;13578;53.450;15.496;2023-05-29T15:46:37;100194.13;;;17.91;67.10
25722;BME280;13578;53.450;15.496;2023-05-29T15:49:38;100192.00;;;17.93;68.59
25722;BME280;13578;53.450;15.496;2023-05-29T15:52:38;100196.88;;;18.00;69.54
25722;BME280;13578;53.450;15.496;2023-05-29T15:55:39;100199.66;;;17.91;70.29